createdAt,value
2022-08-05T00:02:50.438Z,71.30
2022-08-05T00:06:35.989Z,71.60
2022-08-05T00:10:18.334Z,72.00
2022-08-05T00:14:00.325Z,71.70
2022-08-05T00:17:44.224Z,72.00
2022-08-05T00:21:30.474Z,72.50
2022-08-05T00:25:12.905Z,72.70
2022-08-05T00:28:54.892Z,72.60
2022-08-05T00:32:36.867Z,73.00
2022-08-05T00:37:09.902Z,73.00
2022-08-05T00:40:26.991Z,73.70
2022-08-05T00:44:09.597Z,73.60
2022-08-05T00:47:56.639Z,74.00
2022-08-05T00:51:50.503Z,73.90
2022-08-05T00:55:33.936Z,73.80
2022-08-05T00:59:24.594Z,74.00
2022-08-05T01:03:07.926Z,74.20
2022-08-05T01:06:51.720Z,74.60
2022-08-05T01:11:03.114Z,74.90
2022-08-05T01:14:44.993Z,74.10
2022-08-05T01:18:32.908Z,75.20
2022-08-05T01:22:48.898Z,75.30
2022-08-05T01:26:52.838Z,74.90
2022-08-05T01:30:39.748Z,75.60
2022-08-05T01:34:38.006Z,76.50
2022-08-05T01:38:27.292Z,76.50
2022-08-05T01:42:15.295Z,76.80
2022-08-05T01:46:07.310Z,77.20
2022-08-05T01:50:03.069Z,77.30
2022-08-05T01:53:56.947Z,77.80
2022-08-05T01:58:09.704Z,77.90
2022-08-05T02:01:49.745Z,78.20
2022-08-05T02:05:36.877Z,78.50
2022-08-05T02:09:20.614Z,79.40
2022-08-05T02:13:15.917Z,79.60
2022-08-05T02:17:16.765Z,80.50
2022-08-05T02:21:26.267Z,80.40
2022-08-05T02:25:12.497Z,80.80
2022-08-05T02:28:58.375Z,77.60
2022-08-05T02:32:42.142Z,81.90
2022-08-05T02:36:27.622Z,82.40
2022-08-05T02:40:14.798Z,82.90
2022-08-05T02:44:02.508Z,83.30
2022-08-05T02:48:06.943Z,83.70
2022-08-05T02:52:02.906Z,84.50
2022-08-05T02:55:54.729Z,84.90
2022-08-05T02:59:50.200Z,85.40
2022-08-05T03:04:02.246Z,85.80
2022-08-05T03:08:00.938Z,86.10
2022-08-05T03:11:54.739Z,86.40
2022-08-05T03:15:46.113Z,86.90
2022-08-05T03:19:34.399Z,87.10
2022-08-05T03:23:18.416Z,87.50
2022-08-05T03:27:06.666Z,88.30
2022-08-05T03:30:49.591Z,88.50
2022-08-05T03:34:32.990Z,88.90
2022-08-05T03:38:15.389Z,89.30
2022-08-05T03:41:57.436Z,89.60
2022-08-05T03:45:55.212Z,90.00
2022-08-05T03:49:52.070Z,90.20
2022-08-05T03:55:53.362Z,90.50
2022-08-05T03:57:53.745Z,90.60
2022-08-05T04:01:40.207Z,91.10
2022-08-05T04:05:23.209Z,91.40
2022-08-05T04:09:08.774Z,91.70
2022-08-05T04:12:51.770Z,91.90
2022-08-05T04:16:36.753Z,92.10
2022-08-05T04:20:21.374Z,92.30
2022-08-05T04:24:09.070Z,92.70
2022-08-05T04:28:11.065Z,93.00
2022-08-05T04:31:53.418Z,93.10
2022-08-05T04:36:11.094Z,93.30
2022-08-05T04:39:40.971Z,93.50
2022-08-05T04:43:22.947Z,93.70
2022-08-05T04:47:10.350Z,94.20
2022-08-05T04:51:01.955Z,94.40
2022-08-05T04:54:45.137Z,94.40
2022-08-05T04:58:27.044Z,94.50
2022-08-05T05:02:36.621Z,94.70
2022-08-05T05:06:36.044Z,94.80
2022-08-05T05:10:14.441Z,94.90
2022-08-05T05:13:56.359Z,95.00
2022-08-05T05:17:57.128Z,95.20
2022-08-05T05:21:39.610Z,95.30
2022-08-05T05:25:21.617Z,95.30
2022-08-05T05:29:22.617Z,95.40
2022-08-05T05:33:16.469Z,95.50
2022-08-05T05:36:59.418Z,95.60
2022-08-05T05:40:47.976Z,95.50
2022-08-05T05:44:36.738Z,95.50
2022-08-05T05:48:19.579Z,95.30
2022-08-05T05:52:12.985Z,95.50
2022-08-05T05:56:09.545Z,95.50
2022-08-05T05:59:51.509Z,95.50
2022-08-05T06:03:54.103Z,95.30
2022-08-05T06:07:41.766Z,95.10
2022-08-05T06:11:24.541Z,94.90
2022-08-05T06:15:08.018Z,94.80
2022-08-05T06:18:50.119Z,94.60
2022-08-05T06:22:35.892Z,94.40
2022-08-05T06:26:20.908Z,94.20
2022-08-05T06:30:20.177Z,94.00
2022-08-05T06:34:06.956Z,93.80
2022-08-05T06:37:58.127Z,93.60
2022-08-05T06:41:41.318Z,93.40
2022-08-05T06:46:03.041Z,93.00
2022-08-05T06:50:01.932Z,92.70
2022-08-05T06:53:29.297Z,92.40
2022-08-05T06:58:03.468Z,91.80
2022-08-05T07:01:16.891Z,91.30
2022-08-05T07:05:03.121Z,91.00
2022-08-05T07:08:56.364Z,90.90
2022-08-05T07:12:59.561Z,90.10
2022-08-05T07:18:00.227Z,88.50
2022-08-05T07:20:52.357Z,87.10
2022-08-05T07:24:43.986Z,85.20
2022-08-05T07:28:34.838Z,84.20
2022-08-05T07:32:16.770Z,82.50
2022-08-05T07:36:20.822Z,80.50
2022-08-05T07:40:32.519Z,80.00
2022-08-05T07:44:14.523Z,78.80
2022-08-05T07:48:01.707Z,78.00
2022-08-05T07:51:53.290Z,76.90
2022-08-05T07:56:04.780Z,76.40
2022-08-05T07:59:40.993Z,77.00
2022-08-05T08:03:23.277Z,76.70
2022-08-05T08:07:28.162Z,76.00
2022-08-05T08:11:10.696Z,74.50
2022-08-05T08:15:02.153Z,74.80
2022-08-05T08:18:49.952Z,73.00
2022-08-05T08:22:33.436Z,73.00
2022-08-05T08:26:15.451Z,72.80
2022-08-05T08:30:06.037Z,72.10
2022-08-05T08:33:59.661Z,69.60
2022-08-05T08:37:45.157Z,69.70
2022-08-05T08:41:51.255Z,68.30
2022-08-05T08:45:32.911Z,67.40
2022-08-05T08:50:07.600Z,67.00
2022-08-05T08:53:19.193Z,66.90
2022-08-05T08:57:02.074Z,66.10
2022-08-05T09:00:44.546Z,64.70
2022-08-05T09:04:30.731Z,61.70
2022-08-05T09:08:12.761Z,61.20
2022-08-05T09:11:59.337Z,66.80
2022-08-05T09:15:48.100Z,59.10
2022-08-05T09:19:36.815Z,57.10
2022-08-05T09:23:37.433Z,56.20
2022-08-05T09:28:04.504Z,54.90
2022-08-05T09:32:41.545Z,55.30
2022-08-05T09:36:11.865Z,53.40
2022-08-05T09:39:58.581Z,53.70
2022-08-05T09:43:42.231Z,50.80
2022-08-05T09:47:29.675Z,49.20
2022-08-05T09:51:34.429Z,48.10
2022-08-05T09:55:56.545Z,47.40
2022-08-05T09:59:27.541Z,47.70
2022-08-05T10:03:11.205Z,48.30
2022-08-05T10:06:59.632Z,46.80
2022-08-05T10:10:44.804Z,47.20
2022-08-05T10:14:32.211Z,47.40
2022-08-05T10:18:16.890Z,46.40
2022-08-05T10:21:59.360Z,45.30
2022-08-05T10:25:41.612Z,44.50
2022-08-05T10:30:41.387Z,44.60
2022-08-05T10:33:34.266Z,43.90
2022-08-05T10:37:18.763Z,43.40
2022-08-05T10:41:23.261Z,43.20
2022-08-05T10:45:21.568Z,43.50
2022-08-05T10:49:10.460Z,41.00
2022-08-05T10:52:59.949Z,41.00
2022-08-05T10:56:53.069Z,39.40
2022-08-05T11:00:35.313Z,40.90
2022-08-05T11:04:26.341Z,40.50
2022-08-05T11:08:36.732Z,39.70
2022-08-05T11:12:42.316Z,39.40
2022-08-05T11:16:47.422Z,39.40
2022-08-05T11:20:39.079Z,39.70
2022-08-05T11:24:30.626Z,40.00
2022-08-05T11:28:17.287Z,40.80
2022-08-05T11:32:27.455Z,41.50
2022-08-05T11:36:10.666Z,42.20
2022-08-05T11:40:00.329Z,41.70
2022-08-05T11:44:07.529Z,41.20
2022-08-05T11:47:54.591Z,40.30
2022-08-05T11:51:43.731Z,38.40
2022-08-05T11:55:32.175Z,38.70
2022-08-05T11:59:21.187Z,39.60
2022-08-05T12:03:29.160Z,38.90
2022-08-05T12:07:16.125Z,40.60
2022-08-05T12:11:05.871Z,40.30
2022-08-05T12:14:48.417Z,38.80
2022-08-05T12:18:38.893Z,38.00
2022-08-05T12:22:27.854Z,37.80
2022-08-05T12:26:09.795Z,37.70
2022-08-05T12:30:09.229Z,37.20
2022-08-05T12:33:57.409Z,38.60
2022-08-05T12:37:40.391Z,38.10
2022-08-05T12:41:22.317Z,38.60
2022-08-05T12:45:16.313Z,38.90
2022-08-05T12:49:13.523Z,39.70
2022-08-05T12:52:59.650Z,39.90
2022-08-05T12:56:43.255Z,39.30
2022-08-05T13:02:00.355Z,38.80
2022-08-05T13:04:41.626Z,38.30
2022-08-05T13:08:23.990Z,38.00
2022-08-05T13:12:16.083Z,38.70
2022-08-05T13:15:59.055Z,39.10
2022-08-05T13:19:51.839Z,38.60
2022-08-05T13:23:35.001Z,37.60
2022-08-05T13:27:53.556Z,37.60
2022-08-05T13:32:04.907Z,38.20
2022-08-05T13:35:47.428Z,37.40
2022-08-05T13:40:14.997Z,39.00
2022-08-05T13:43:45.825Z,39.40
2022-08-05T13:48:08.753Z,38.50
2022-08-05T13:51:46.438Z,38.90
2022-08-05T13:55:40.993Z,38.80
2022-08-05T13:59:27.427Z,39.80
2022-08-05T14:03:12.836Z,39.60
2022-08-05T14:07:11.897Z,39.80
2022-08-05T14:11:08.078Z,39.30
2022-08-05T14:14:58.731Z,38.90
2022-08-05T14:18:40.693Z,38.80
2022-08-05T14:22:23.387Z,38.90
2022-08-05T14:26:38.476Z,39.80
2022-08-05T14:30:20.116Z,40.50
2022-08-05T14:34:03.586Z,41.20
2022-08-05T14:37:49.010Z,41.50
2022-08-05T14:41:33.297Z,42.40
2022-08-05T14:45:15.346Z,41.90
2022-08-05T14:49:06.692Z,40.70
2022-08-05T14:52:53.543Z,41.00
2022-08-05T14:56:44.349Z,41.50
2022-08-05T15:00:29.585Z,42.40
2022-08-05T15:04:11.993Z,42.50
2022-08-05T15:08:11.367Z,41.80
2022-08-05T15:11:57.131Z,41.90
2022-08-05T15:15:55.151Z,44.90
2022-08-05T15:19:38.992Z,41.30
2022-08-05T15:23:21.011Z,43.40
2022-08-05T15:27:03.460Z,44.00
2022-08-05T15:30:46.552Z,42.10
2022-08-05T15:34:33.141Z,41.70
2022-08-05T15:38:34.087Z,42.10
2022-08-05T15:42:49.995Z,42.60
2022-08-05T15:46:20.653Z,43.10
2022-08-05T15:50:07.627Z,43.40
2022-08-05T15:53:51.947Z,42.70
2022-08-05T15:57:34.656Z,42.50
2022-08-05T16:01:18.958Z,43.60
2022-08-05T16:05:02.297Z,42.90
2022-08-05T16:08:47.478Z,43.60
2022-08-05T16:12:29.537Z,44.60
2022-08-05T16:16:15.170Z,44.40
2022-08-05T16:20:11.665Z,45.20
2022-08-05T16:23:55.369Z,45.30
2022-08-05T16:28:00.134Z,47.10
2022-08-05T16:31:57.429Z,47.30
2022-08-05T16:35:42.169Z,47.80
2022-08-05T16:40:05.040Z,47.40
2022-08-05T16:43:32.107Z,48.40
2022-08-05T16:47:28.727Z,49.20
2022-08-05T16:51:16.276Z,50.20
2022-08-05T16:54:58.245Z,50.60
2022-08-05T16:58:41.054Z,49.70
2022-08-05T17:02:23.453Z,50.10
2022-08-05T17:06:05.757Z,51.60
2022-08-05T17:09:58.372Z,50.60
2022-08-05T17:13:42.173Z,51.90
2022-08-05T17:17:24.340Z,52.30
2022-08-05T17:21:24.319Z,52.50
2022-08-05T17:25:09.705Z,52.50
2022-08-05T17:29:10.097Z,52.00
2022-08-05T17:32:52.839Z,51.60
2022-08-05T17:36:40.153Z,52.00
2022-08-05T17:40:23.078Z,52.30
2022-08-05T17:44:05.181Z,52.20
2022-08-05T17:47:51.368Z,52.10
2022-08-05T17:51:40.019Z,52.80
2022-08-05T17:55:27.321Z,53.00
2022-08-05T17:59:20.913Z,52.50
2022-08-05T18:03:04.659Z,52.80
2022-08-05T18:06:50.135Z,53.30
2022-08-05T18:10:33.702Z,53.80
2022-08-05T18:14:20.543Z,53.60
2022-08-05T18:18:07.839Z,53.60
2022-08-05T18:22:09.087Z,52.90
2022-08-05T18:25:57.841Z,52.10
2022-08-05T18:29:41.795Z,51.60
2022-08-05T18:33:24.154Z,51.40
2022-08-05T18:37:12.662Z,51.80
2022-08-05T18:41:56.551Z,51.80
2022-08-05T18:45:02.274Z,52.00
2022-08-05T18:48:44.280Z,53.10
2022-08-05T18:52:50.887Z,52.80
2022-08-05T18:56:33.866Z,52.90
2022-08-05T19:00:20.638Z,52.50
2022-08-05T19:04:03.053Z,53.60
2022-08-05T19:07:50.728Z,54.10
2022-08-05T19:11:37.226Z,54.40
2022-08-05T19:16:00.119Z,54.10
2022-08-05T19:19:37.533Z,54.60
2022-08-05T19:24:05.951Z,54.90
2022-08-05T19:27:33.804Z,55.10
2022-08-05T19:31:19.232Z,55.30
2022-08-05T19:35:05.962Z,55.60
2022-08-05T19:38:48.889Z,55.70
2022-08-05T19:42:35.703Z,56.00
2022-08-05T19:46:30.593Z,56.30
2022-08-05T19:50:12.932Z,56.70
2022-08-05T19:54:04.999Z,57.10
2022-08-05T19:58:19.569Z,58.40
2022-08-05T20:01:50.050Z,58.50
2022-08-05T20:05:43.108Z,58.30
2022-08-05T20:09:25.707Z,58.50
2022-08-05T20:13:07.657Z,58.90
2022-08-05T20:16:51.646Z,59.50
2022-08-05T20:20:33.815Z,59.60
2022-08-05T20:24:16.171Z,59.70
2022-08-05T20:27:58.212Z,60.20
2022-08-05T20:31:50.366Z,60.80
2022-08-05T20:35:40.644Z,61.00
2022-08-05T20:39:35.445Z,61.60
2022-08-05T20:43:33.403Z,61.80
2022-08-05T20:47:20.893Z,62.00
2022-08-05T20:51:15.691Z,62.40
2022-08-05T20:55:15.728Z,62.20
2022-08-05T20:59:00.104Z,63.20
2022-08-05T21:03:01.164Z,63.70
2022-08-05T21:06:45.283Z,63.60
2022-08-05T21:10:30.778Z,63.50
2022-08-05T21:14:12.759Z,63.80
2022-08-05T21:17:56.533Z,63.90
2022-08-05T21:21:44.439Z,64.40
2022-08-05T21:25:34.114Z,64.10
2022-08-05T21:29:16.906Z,64.60
2022-08-05T21:32:59.819Z,64.80
2022-08-05T21:36:46.601Z,65.10
2022-08-05T21:40:31.269Z,65.00
2022-08-05T21:44:16.258Z,65.30
2022-08-05T21:48:08.898Z,65.70
2022-08-05T21:52:22.948Z,66.20
2022-08-05T21:56:06.440Z,66.70
2022-08-05T22:00:05.378Z,67.10
2022-08-05T22:03:53.130Z,67.30
2022-08-05T22:07:39.324Z,67.20
2022-08-05T22:11:36.487Z,67.70
2022-08-05T22:16:00.887Z,68.00
2022-08-05T22:20:02.938Z,67.90
2022-08-05T22:24:02.764Z,68.20
2022-08-05T22:28:08.360Z,68.70
2022-08-05T22:31:45.947Z,68.80
2022-08-05T22:35:49.174Z,69.30
2022-08-05T22:39:33.977Z,69.80
2022-08-05T22:43:16.256Z,69.80
2022-08-05T22:47:29.841Z,70.30
2022-08-05T22:51:15.719Z,70.90
2022-08-05T22:55:18.610Z,70.90
2022-08-05T22:59:42.563Z,71.10
2022-08-05T23:03:04.902Z,71.50
2022-08-05T23:06:47.621Z,71.90
2022-08-05T23:10:30.020Z,72.20
2022-08-05T23:14:13.182Z,72.40
2022-08-05T23:18:01.727Z,73.00
2022-08-05T23:21:48.209Z,73.40
2022-08-05T23:25:51.955Z,73.90
2022-08-05T23:29:34.588Z,73.90
2022-08-05T23:33:25.817Z,74.30
2022-08-05T23:37:18.766Z,74.70
2022-08-05T23:41:02.415Z,74.80
2022-08-05T23:44:44.702Z,75.40
2022-08-05T23:48:36.127Z,75.70
2022-08-05T23:52:27.788Z,76.20
2022-08-05T23:56:10.322Z,76.00
